Lehigh Valley International Airport Allentown US
ICAO: KABE
IATA: ABE
Category: Medium
Scheduled Services: Yes

Elevation: 393 ft
TransAlt. 18000 ft.

Airport Communications:
APP/DEP:118.2
ATIS:126.975
CLNC DEL:124.05
GND:121.9
WILLIAMSPORT RDO:117.5
TWR:120.5
UNICOM:122.95

KABE Zoom In..

If Map Doesn't Load, Click Here

Runways:

(A) RW 06 length 7599 ft width 150 ft
ILS 110.70 / hdg 63

(B) RW 13 length 5797 ft width 150 ft
ILS 111.90 / hdg 135

(C) RW 24 length 7599 ft width 150 ft
ILS 108.55 / hdg 243

(D) RW 31 length 5797 ft width 150 ft
---- / hdg 315

Location; KABE
Day. 26 / Time. 10.51 Zulu
* Altimeter: 30.02
* Temperature: 19° c. 66.2°f.
* Wind from: 130° Speed 03 kn.
Dewpoint: 18° c.
Visibility: 6 Statute Miles.
Clouds: Broken 2000 ft.
Conditions: Mist.

KABE 261051Z 13003KT 6SM BR BKN020 19/18 A3002 RMK AO2 SLP162 T01890178


Wind From 130°
Speed 03 kn.

 
 
jpsmedia.com for Web Design worldairports.se 2018   terms of use